WEATHER DATA

YESTERDAY
Time Temp. Dewp. Hum. Bar. 1h Prec. 24h Prec.
00:03 -4.8 -4.8 100 1014.3 0.0000 0.0000
00:13 -4.8 -4.8 100 1014.3 0.0000 0.0000
00:34 -4.9 -4.9 100 1014.1 0.0000 0.0000
00:43 -4.9 -4.9 100 1013.8 0.0000 0.0000
00:53 -4.9 -4.9 100 1013.7 0.0000 0.0000
01:14 -5 -5.1 99 1013.3 0.0000 0.0000
01:24 -5 -5.1 99 1013.2 0.0000 0.0000
01:33 -5.1 -5.1 100 1013.2 0.0000 0.0000
01:54 -5.1 -5.1 100 1012.9 0.0000 0.0000
02:04 -5.2 -5.2 100 1012.7 0.0000 0.0000
02:14 -5.2 -5.2 100 1012.6 0.0000 0.0000
02:34 -5.3 -5.3 100 1012.4 0.0000 0.0000
02:43 -5.3 -5.3 100 1012.4 0.0000 0.0000
02:55 -5.4 -5.4 100 1012.2 0.0000 0.0000
03:04 -5.4 -5.5 99 1012 0.0000 0.0000
03:14 -5.5 -5.5 100 1011.9 0.0000 0.0000
03:24 -5.5 -5.5 100 1011.9 0.0000 0.0000
03:35 -5.5 -5.5 100 1011.9 0.0000 0.0000
03:44 -5.4 -5.4 100 1011.9 0.0000 0.0000
03:54 -5.4 -5.4 100 1011.9 0.0000 0.0000
04:04 -5.4 -5.4 100 1011.7 0.0000 0.0000
04:15 -5.4 -5.4 100 1011.7 0.0000 0.0000
04:25 -5.3 -5.3 100 1011.7 0.0000 0.0000
04:35 -5.3 -5.3 100 1011.4 0.0000 0.0000
04:45 -5.3 -5.3 100 1011.1 0.0000 0.0000
04:55 -5.3 -5.3 100 1010.8 0.0000 0.0000
05:05 -5.3 -5.3 100 1010.5 0.0000 0.0000
05:15 -5.4 -5.5 99 1010.4 0.0000 0.0000
05:25 -5.3 -5.4 99 1010.6 0.0000 0.0000
05:35 -5.2 -5.3 99 1010.6 0.0000 0.0000
05:45 -5.2 -5.3 99 1010.4 0.0000 0.0000
05:55 -5.2 -5.3 99 1010.2 0.0000 0.0000
06:05 -5.1 -5.2 99 1010.2 0.0000 0.0000
06:16 -5 -5.1 99 1010.3 0.0000 0.0000
06:26 -5 -5.1 99 1010.2 0.0000 0.0000
06:35 -4.9 -5 99 1010.1 0.0000 0.0000
06:46 -4.8 -4.9 99 1010.1 0.0000 0.0000
06:56 -4.8 -4.9 99 1009.7 0.0000 0.0000
07:06 -4.7 -4.8 99 1009.5 0.0000 0.0000
07:16 -4.7 -4.8 99 1009.2 0.0000 0.0000
07:26 -4.7 -4.9 98 1009.4 0.0000 0.0000
07:36 -4.6 -4.8 98 1009.6 0.0000 0.0000
07:46 -4.5 -4.7 98 1009.4 0.0000 0.0000
07:56 -4.5 -4.7 98 1009.4 0.0000 0.0000
08:06 -4.5 -4.7 98 1009.2 0.0000 0.0000
08:16 -4.4 -4.6 98 1009.5 0.0000 0.0000
08:26 -4.3 -4.5 98 1009.4 0.0000 0.0000
08:37 -4.3 -4.5 98 1009.3 0.0000 0.0000
08:47 -4.2 -4.6 97 1009.4 0.0000 0.0000
08:56 -4.1 -4.5 97 1009.5 0.0000 0.0000
09:07 -4 -4.5 96 1009.5 0.0000 0.0000
09:17 -3.9 -4.5 95 1009.3 0.0000 0.0000
09:27 -3.9 -4.6 94 1009.2 0.0000 0.0000
09:36 -3.9 -4.6 94 1009.2 0.0000 0.0000
09:47 -3.9 -4.6 94 1009.1 0.0000 0.0000
09:57 -3.7 -4.3 95 1009.2 0.0000 0.0000
10:07 -3.6 -4.2 95 1009.2 0.0000 0.0000
10:17 -3.5 -4.1 95 1009.2 0.0000 0.0000
10:27 -3.4 -4 95 1009.3 0.0000 0.0000
10:37 -3.2 -3.8 95 1009.1 0.0000 0.0000
10:47 -3.1 -3.7 95 1008.9 0.0000 0.0000
10:58 -3 -3.6 95 1008.8 0.0000 0.0000
11:17 -2.8 -3.4 95 1008.5 0.0000 0.0000
11:28 -2.6 -3.2 95 1008.4 0.0000 0.0000
11:38 -2.4 -3 95 1008.3 0.0000 0.0000
11:47 -2.4 -3.1 94 1008.1 0.0000 0.0000
11:57 -2.3 -3 94 1008 0.0000 0.0000
12:08 -2.3 -3.2 93 1007.9 0.0000 0.0000
12:18 -2.3 -3.2 93 1007.8 0.0000 0.0000
12:27 -2.2 -2.9 94 1007.7 0.0000 0.0000
12:37 -2.2 -3.1 93 1007.6 0.0000 0.0000
12:48 -2.1 -2.8 94 1007.3 0.0000 0.0000
12:58 -2.1 -2.8 94 1007.1 0.0000 0.0000
13:08 -2 -2.7 94 1007 0.0000 0.0000
13:19 -2 -2.7 94 1006.6 0.0000 0.0000
13:28 -2 -2.7 94 1006.5 0.0000 0.0000
13:38 -1.9 -2.5 95 1006.3 0.0000 0.0000
13:49 -1.9 -2.6 94 1006.3 0.0000 0.0000
13:59 -1.9 -2.8 93 1006.1 0.0000 0.0000
14:08 -1.8 -2.7 93 1006 0.0000 0.0000
14:18 -1.8 -2.7 93 1005.9 0.0000 0.0000
14:29 -1.7 -2.4 94 1005.7 0.0000 0.0000
14:39 -1.6 -2.3 94 1005.7 0.0000 0.0000
14:48 -1.5 -2.2 94 1005.6 0.0000 0.0000
14:59 -1.5 -2.4 93 1005.7 0.0000 0.0000
15:09 -1.4 -2.1 94 1005.6 0.0000 0.0000
15:19 -1.3 -2 94 1005.6 0.0000 0.0000
15:28 -1.2 -1.9 94 1005.4 0.0000 0.0000
15:39 -1.2 -1.9 94 1005.2 0.0000 0.0000
15:49 -1.2 -1.9 94 1005.2 0.0000 0.0000
15:59 -1.2 -1.9 94 1005.1 0.0000 0.0000
16:10 -1.2 -1.9 94 1005.1 0.0000 0.0000
16:19 -1.1 -1.8 94 1004.9 0.0000 0.0000
16:29 -1.1 -2 93 1004.8 0.0000 0.0000
16:39 -1 -1.9 93 1004.8 0.0000 0.0000
16:50 -1 -1.7 94 1005 0.0000 0.0000
16:59 -0.9 -1.8 93 1004.9 0.0000 0.0000
17:09 -0.9 -1.8 93 1004.9 0.0000 0.0000
17:20 -0.9 -1.8 93 1004.8 0.0000 0.0000
17:30 -0.8 -1.7 93 1004.7 0.0000 0.0000
17:40 -0.8 -1.7 93 1004.6 0.0000 0.0000
17:49 -0.7 -1.4 94 1004.6 0.0000 0.0000
18:00 -0.7 -1.4 94 1004.4 0.0000 0.0000
18:10 -0.7 -1.4 94 1004.5 0.0000 0.0000
18:20 -0.8 -1.7 93 1004.4 0.0000 0.0000
18:30 -0.9 -1.8 93 1004.2 0.0000 0.0000
18:40 -1 -1.7 94 1003.9 0.0000 0.0000
18:50 -1.1 -1.8 94 1004.2 0.0000 0.0000
19:00 -1.2 -1.9 94 1004.2 0.0000 0.0000
19:11 -1.3 -2 94 1004.2 0.0000 0.0000
19:20 -1.3 -1.9 95 1004.2 0.0000 0.0000
19:30 -1.2 -1.8 95 1003.9 0.0000 0.0000
19:41 -1.2 -1.8 95 1003.9 0.0000 0.0000
19:51 -1.1 -1.7 95 1003.9 0.0000 0.0000
20:01 -1.1 -1.7 95 1003.9 0.0000 0.0000
20:10 -1 -1.6 95 1003.9 0.0000 0.0000
20:21 -1 -1.6 95 1003.7 0.0000 0.0000
20:31 -0.9 -1.5 95 1003.6 0.0000 0.0000
20:43 -0.9 -1.5 95 1003.4 0.0000 0.0000
20:52 -0.8 -1.4 95 1003.2 0.0000 0.0000
21:03 -0.8 -1.4 95 1003.2 0.0000 0.0000
21:13 -0.6 -1.2 95 1003.1 0.0000 0.0000
21:22 -0.6 -1.2 95 1003.2 0.0000 0.0000
21:32 -0.6 -1.2 95 1003.3 0.0000 0.0000
21:43 -0.5 -1.1 95 1003.3 0.0000 0.0000
21:53 -0.5 -1.1 95 1003.2 0.0000 0.0000
22:03 -0.4 -1 95 1003 0.0000 0.0000
22:14 -0.4 -1.1 94 1002.9 0.0000 0.0000
22:23 -0.4 -1.1 94 1002.6 0.0000 0.0000
22:33 -0.4 -1.1 94 1002.6 0.0000 0.0000
22:43 -0.4 -1.1 94 1002.4 0.0000 0.0000
22:54 -0.4 -1 95 1002.3 0.0000 0.0000
23:03 -0.4 -1 95 1002.3 0.0000 0.0000
23:13 -0.4 -1.1 94 1002.1 0.0000 0.0000
23:24 -0.5 -1.2 94 1002 0.0000 0.0000
23:34 -0.6 -1.3 94 1002 0.0000
23:44 -0.8 -1.5 94 1001.9 0.0000
23:53 -0.9 -1.6 94 1001.8 0.0000

DAY STATISTIC

2020-12-03
TEMPERATURE
AVERAGE
-2.8
HIGH
-0.4
22:03
LOW
-5.5
03:14
PRESSURE
AVERAGE
1007.5
HIGH
1014.3
00:03
LOW
1001.8
23:53
DEWPOINT
AVERAGE
-3.3
HIGH
-1.0
22:03
LOW
-5.5
03:04
HUMIDITY
AVERAGE
96
HIGH
100
00:03
LOW
93
12:08
PRECIPITATION
RAIN HOUR
0.0
RAIN DAY
0.0
TEMPERATURE (°C)
LOW
-5.5
HIGH
-0.4
AVERAGE
-2.8
PRESSURE (hpa)
LOW
1001.8
HIGH
1014.3
AVERAGE
1007.5
DEVICE